Time;durP1;ratioP1;P1;durP2;ratioP2;P2;SDS_P1;SDS_P2;PMS_P1;PMS_P2;Temp;Humidity;BMP_temperature;BMP_pressure;BME280_temperature;BME280_humidity;BME280_pressure;Samples;Min_cycle;Max_cycle;Signal;HPM_P1;HPM_P2
2021/07/15 00:02:27;;;;;;;0.90;0.52;;;;;;;;;;4956134;28;20030;-88
2021/07/15 00:05:14;;;;;;;1.38;0.57;;;;;;;;;;4967713;28;20466;-86
2021/07/15 00:07:59;;;;;;;3.15;0.52;;;;;;;;;;4957138;28;20026;-88
2021/07/15 00:10:47;;;;;;;0.95;0.70;;;;;;;;;;4955656;28;20026;-87
2021/07/15 00:13:32;;;;;;;0.55;0.55;;;;;;;;;;4957064;28;20084;-88
2021/07/15 00:16:17;;;;;;;1.10;0.70;;;;;;;;;;4922663;29;20028;-88
2021/07/15 00:19:03;;;;;;;2.28;0.63;;;;;;;;;;4919767;29;20078;-89
2021/07/15 00:21:49;;;;;;;2.97;0.82;;;;;;;;;;4902995;29;20015;-90
2021/07/15 00:24:34;;;;;;;1.60;0.70;;;;;;;;;;4919044;29;20023;-90
2021/07/15 00:27:19;;;;;;;0.60;0.60;;;;;;;;;;4919253;29;20106;-87
2021/07/15 00:30:06;;;;;;;3.35;0.88;;;;;;;;;;4927868;29;20027;-88
2021/07/15 00:32:51;;;;;;;0.50;0.50;;;;;;;;;;4930581;29;20038;-87
2021/07/15 00:35:37;;;;;;;2.53;0.70;;;;;;;;;;4918849;29;20080;-89
2021/07/15 00:38:22;;;;;;;0.70;0.68;;;;;;;;;;4919092;29;20074;-88
2021/07/15 00:41:07;;;;;;;4.22;0.60;;;;;;;;;;4917969;29;20104;-89
2021/07/15 00:43:53;;;;;;;1.95;0.80;;;;;;;;;;4918891;29;20034;-89
2021/07/15 00:46:38;;;;;;;0.60;0.60;;;;;;;;;;4919372;29;20020;-90
2021/07/15 00:49:23;;;;;;;3.30;0.70;;;;;;;;;;4919545;29;20056;-89
2021/07/15 00:52:11;;;;;;;2.72;0.85;;;;;;;;;;4917056;29;20479;-90
2021/07/15 00:54:57;;;;;;;1.45;0.50;;;;;;;;;;4919178;29;20032;-89
2021/07/15 00:57:43;;;;;;;1.23;0.43;;;;;;;;;;4918210;29;20247;-88
2021/07/15 01:00:28;;;;;;;0.47;0.45;;;;;;;;;;4918310;29;20487;-89
2021/07/15 01:03:14;;;;;;;2.30;1.00;;;;;;;;;;4918460;29;20043;-88
2021/07/15 01:05:59;;;;;;;0.90;0.70;;;;;;;;;;4927861;29;20106;-89
2021/07/15 01:08:44;;;;;;;0.65;0.60;;;;;;;;;;4951074;29;20030;-88
2021/07/15 01:11:34;;;;;;;0.73;0.50;;;;;;;;;;4949655;28;20019;-89
2021/07/15 01:14:23;;;;;;;1.27;0.60;;;;;;;;;;4969376;28;20040;-89
2021/07/15 01:17:11;;;;;;;0.57;0.50;;;;;;;;;;4969782;28;20386;-88
2021/07/15 01:20:11;;;;;;;1.10;0.73;;;;;;;;;;4967804;28;20023;-90
2021/07/15 01:23:23;;;;;;;3.08;0.75;;;;;;;;;;4969598;28;20034;-89
2021/07/15 01:26:20;;;;;;;1.98;0.85;;;;;;;;;;4969877;28;20048;-89
2021/07/15 01:29:24;;;;;;;2.63;1.17;;;;;;;;;;4969786;28;20019;-89
2021/07/15 01:32:11;;;;;;;1.88;1.08;;;;;;;;;;4969723;28;20015;-88
2021/07/15 01:35:01;;;;;;;2.00;0.60;;;;;;;;;;4969676;28;20062;-90
2021/07/15 01:37:51;;;;;;;2.53;0.60;;;;;;;;;;4969256;28;20019;-89
2021/07/15 01:40:58;;;;;;;0.47;0.47;;;;;;;;;;4969444;28;20031;-88
2021/07/15 01:43:45;;;;;;;1.48;0.57;;;;;;;;;;4969023;28;20027;-88
2021/07/15 01:46:31;;;;;;;0.70;0.50;;;;;;;;;;4969329;28;20027;-87
2021/07/15 01:49:16;;;;;;;1.40;0.60;;;;;;;;;;4958313;28;20131;-88
2021/07/15 01:52:03;;;;;;;1.65;1.05;;;;;;;;;;4973170;28;20058;-89
2021/07/15 01:54:50;;;;;;;4.20;0.70;;;;;;;;;;4976280;28;20054;-88
2021/07/15 01:57:37;;;;;;;0.63;0.50;;;;;;;;;;4959275;28;20018;-89
2021/07/15 02:00:23;;;;;;;1.80;0.60;;;;;;;;;;4971553;28;20030;-87
2021/07/15 02:03:09;;;;;;;3.15;0.63;;;;;;;;;;4973257;28;20026;-87
2021/07/15 02:05:55;;;;;;;4.10;0.45;;;;;;;;;;4974071;28;20114;-89
2021/07/15 02:08:41;;;;;;;0.60;0.60;;;;;;;;;;4975056;28;20101;-90
2021/07/15 02:11:33;;;;;;;1.58;0.65;;;;;;;;;;4972823;28;20022;-90
2021/07/15 02:14:20;;;;;;;1.70;0.68;;;;;;;;;;4955770;29;20035;-89
2021/07/15 02:17:05;;;;;;;0.85;0.70;;;;;;;;;;4954070;29;20414;-89
2021/07/15 02:19:50;;;;;;;0.65;0.65;;;;;;;;;;4953781;29;20020;-88
2021/07/15 02:22:36;;;;;;;2.20;0.57;;;;;;;;;;4941151;29;20053;-89
2021/07/15 02:25:22;;;;;;;1.50;0.65;;;;;;;;;;4954079;29;20042;-88
2021/07/15 02:28:09;;;;;;;1.80;0.50;;;;;;;;;;4953926;29;20055;-87
2021/07/15 02:31:00;;;;;;;3.05;1.20;;;;;;;;;;4954151;29;20019;-88
2021/07/15 02:33:48;;;;;;;0.82;0.40;;;;;;;;;;4953788;29;20034;-90
2021/07/15 02:36:34;;;;;;;0.50;0.50;;;;;;;;;;4963697;28;20425;-89
2021/07/15 02:39:19;;;;;;;0.68;0.40;;;;;;;;;;4954128;29;20030;-88
2021/07/15 02:42:04;;;;;;;0.47;0.47;;;;;;;;;;4940578;29;20019;-87
2021/07/15 02:44:50;;;;;;;1.65;0.57;;;;;;;;;;4951220;29;20478;-89
2021/07/15 02:47:35;;;;;;;3.35;0.40;;;;;;;;;;4953766;29;20469;-89
2021/07/15 02:50:22;;;;;;;0.55;0.38;;;;;;;;;;4953045;29;20494;-90
2021/07/15 02:53:07;;;;;;;0.65;0.40;;;;;;;;;;4953276;29;20422;-87
2021/07/15 02:55:57;;;;;;;1.45;0.60;;;;;;;;;;4949831;29;20111;-88
2021/07/15 02:58:42;;;;;;;;;;;;;;;;;;4953167;28;20439;-88
2021/07/15 03:01:29;;;;;;;0.50;0.50;;;;;;;;;;4937647;29;19906;-87
2021/07/15 03:04:19;;;;;;;0.50;0.50;;;;;;;;;;4952752;29;20031;-87
2021/07/15 03:07:07;;;;;;;0.45;0.45;;;;;;;;;;4947490;29;20474;-88
2021/07/15 03:09:53;;;;;;;1.73;0.50;;;;;;;;;;4952850;29;20031;-88
2021/07/15 03:12:39;;;;;;;1.27;0.50;;;;;;;;;;4952223;29;20090;-89
2021/07/15 03:15:25;;;;;;;1.20;0.50;;;;;;;;;;4961280;28;20045;-88
2021/07/15 03:18:15;;;;;;;0.68;0.47;;;;;;;;;;4971080;28;20470;-87
2021/07/15 03:21:04;;;;;;;1.70;0.55;;;;;;;;;;4969887;28;20461;-87
2021/07/15 03:23:52;;;;;;;1.10;0.40;;;;;;;;;;4971147;28;20022;-88
2021/07/15 03:26:37;;;;;;;2.45;0.50;;;;;;;;;;4971279;28;20034;-88
2021/07/15 03:29:23;;;;;;;2.67;0.40;;;;;;;;;;4971799;28;20034;-87
2021/07/15 03:32:09;;;;;;;2.53;0.50;;;;;;;;;;4971605;28;20027;-88
2021/07/15 03:34:54;;;;;;;0.90;0.73;;;;;;;;;;4958022;28;20658;-88
2021/07/15 03:37:41;;;;;;;0.65;0.60;;;;;;;;;;4972004;28;20030;-88
2021/07/15 03:40:27;;;;;;;2.70;0.63;;;;;;;;;;4971790;28;20030;-88
2021/07/15 03:43:13;;;;;;;1.13;0.50;;;;;;;;;;4972300;28;20026;-88
2021/07/15 03:45:59;;;;;;;1.02;0.50;;;;;;;;;;4958310;28;20433;-88
2021/07/15 03:48:45;;;;;;;0.68;0.50;;;;;;;;;;4971936;28;20478;-88
2021/07/15 03:51:32;;;;;;;0.40;0.40;;;;;;;;;;4970314;28;20021;-89
2021/07/15 03:54:20;;;;;;;5.22;0.60;;;;;;;;;;4968491;28;20019;-87
2021/07/15 03:57:05;;;;;;;2.50;0.60;;;;;;;;;;4971349;28;20176;-88
2021/07/15 03:59:51;;;;;;;2.90;0.80;;;;;;;;;;4971158;28;20027;-88
2021/07/15 04:02:37;;;;;;;3.30;0.50;;;;;;;;;;4971255;28;20033;-88
2021/07/15 04:05:23;;;;;;;2.08;0.52;;;;;;;;;;4956243;28;20075;-88
2021/07/15 04:08:09;;;;;;;0.65;0.52;;;;;;;;;;4957668;28;20114;-88
2021/07/15 04:10:59;;;;;;;1.35;0.50;;;;;;;;;;4955561;28;20065;-87
2021/07/15 04:13:44;;;;;;;;;;;;;;;;;;4934180;29;20038;-89
2021/07/15 04:16:44;;;;;;;1.95;0.45;;;;;;;;;;4950967;28;20095;-88
2021/07/15 04:19:30;;;;;;;3.20;0.77;;;;;;;;;;4958040;28;20033;-89
2021/07/15 04:22:15;;;;;;;0.70;0.43;;;;;;;;;;4962264;28;20023;-88
2021/07/15 04:25:01;;;;;;;1.90;0.63;;;;;;;;;;4957399;28;20067;-90
2021/07/15 04:27:48;;;;;;;0.50;0.50;;;;;;;;;;4957540;28;20027;-89
2021/07/15 04:30:33;;;;;;;3.47;0.55;;;;;;;;;;4955832;28;20030;-88
2021/07/15 04:33:20;;;;;;;1.35;0.47;;;;;;;;;;4957293;28;20465;-88
2021/07/15 04:36:06;;;;;;;3.65;0.70;;;;;;;;;;4958190;28;20030;-88
2021/07/15 04:38:51;;;;;;;1.48;0.50;;;;;;;;;;4957478;28;20019;-88
2021/07/15 04:41:37;;;;;;;1.58;0.55;;;;;;;;;;4944580;28;20026;-89
2021/07/15 04:44:22;;;;;;;0.73;0.40;;;;;;;;;;4957565;28;20030;-86
2021/07/15 04:47:08;;;;;;;4.03;0.77;;;;;;;;;;4957787;28;20018;-88
2021/07/15 04:49:53;;;;;;;1.17;0.52;;;;;;;;;;4958021;28;20031;-87
2021/07/15 04:52:39;;;;;;;2.75;0.90;;;;;;;;;;4957592;28;20033;-88
2021/07/15 04:55:24;;;;;;;1.42;0.95;;;;;;;;;;4956471;28;20023;-88
2021/07/15 04:58:10;;;;;;;1.42;0.90;;;;;;;;;;4957763;28;20536;-89
2021/07/15 05:00:55;;;;;;;3.00;0.70;;;;;;;;;;4955881;28;20173;-88
2021/07/15 05:03:40;;;;;;;2.55;0.73;;;;;;;;;;4957386;28;20077;-88
2021/07/15 05:06:26;;;;;;;4.25;0.73;;;;;;;;;;4962884;28;20484;-88
2021/07/15 05:09:11;;;;;;;2.17;0.70;;;;;;;;;;4972438;28;20030;-88
2021/07/15 05:11:56;;;;;;;1.17;0.50;;;;;;;;;;4970979;28;20466;-87
2021/07/15 05:14:41;;;;;;;3.38;0.57;;;;;;;;;;4970240;28;20413;-88
2021/07/15 05:17:27;;;;;;;3.33;0.90;;;;;;;;;;4969941;28;20050;-88
2021/07/15 05:20:12;;;;;;;1.50;0.82;;;;;;;;;;4956580;28;20018;-87
2021/07/15 05:22:57;;;;;;;4.80;1.40;;;;;;;;;;4968561;28;20015;-88
2021/07/15 05:25:43;;;;;;;1.45;0.90;;;;;;;;;;4970172;28;20030;-88
2021/07/15 05:28:28;;;;;;;2.13;1.10;;;;;;;;;;4969842;28;20473;-87
2021/07/15 05:31:13;;;;;;;3.65;0.80;;;;;;;;;;4969777;28;20023;-87
2021/07/15 05:33:58;;;;;;;5.50;0.90;;;;;;;;;;4969347;28;20030;-87
2021/07/15 05:36:43;;;;;;;3.50;0.88;;;;;;;;;;4969961;28;20031;-88
2021/07/15 05:39:29;;;;;;;3.38;1.00;;;;;;;;;;4969387;28;20500;-88
2021/07/15 05:42:14;;;;;;;0.88;0.50;;;;;;;;;;4969450;28;20022;-88
2021/07/15 05:44:59;;;;;;;0.80;0.80;;;;;;;;;;4969372;28;20500;-88
2021/07/15 05:47:45;;;;;;;3.40;1.52;;;;;;;;;;4969347;28;20113;-88
2021/07/15 05:50:30;;;;;;;8.48;5.28;;;;;;;;;;4969590;28;20030;-86
2021/07/15 05:53:15;;;;;;;1.40;1.05;;;;;;;;;;4969632;28;20030;-87
2021/07/15 05:56:00;;;;;;;2.78;0.63;;;;;;;;;;4969319;28;20039;-87
2021/07/15 05:58:46;;;;;;;2.35;0.70;;;;;;;;;;4969457;28;20039;-87
2021/07/15 06:01:31;;;;;;;1.92;0.60;;;;;;;;;;4969417;28;20181;-86
2021/07/15 06:04:16;;;;;;;0.82;0.60;;;;;;;;;;4969049;28;20030;-86
2021/07/15 06:07:01;;;;;;;2.33;1.00;;;;;;;;;;4969440;28;20088;-86
2021/07/15 06:09:47;;;;;;;1.33;0.60;;;;;;;;;;4967497;28;20023;-86
2021/07/15 06:12:32;;;;;;;2.75;0.70;;;;;;;;;;4963190;28;20016;-87
2021/07/15 06:15:17;;;;;;;1.75;0.65;;;;;;;;;;4959926;28;20019;-87
2021/07/15 06:18:03;;;;;;;7.57;3.63;;;;;;;;;;4968820;28;20015;-86
2021/07/15 06:20:48;;;;;;;4.45;3.20;;;;;;;;;;4967776;28;20023;-87
2021/07/15 06:23:33;;;;;;;1.67;1.02;;;;;;;;;;4969466;28;20026;-86
2021/07/15 06:26:19;;;;;;;5.45;0.90;;;;;;;;;;4969142;28;20058;-86
2021/07/15 06:29:04;;;;;;;3.13;0.70;;;;;;;;;;4969344;28;20023;-86
2021/07/15 06:31:49;;;;;;;1.15;0.60;;;;;;;;;;4969638;28;20359;-89
2021/07/15 06:34:34;;;;;;;5.90;1.67;;;;;;;;;;4969771;28;20486;-85
2021/07/15 06:37:25;;;;;;;0.60;0.60;;;;;;;;;;4972123;28;20462;-84
2021/07/15 06:40:10;;;;;;;2.58;0.80;;;;;;;;;;4971867;28;20022;-85
2021/07/15 06:42:56;;;;;;;3.53;0.80;;;;;;;;;;4970539;28;20026;-86
2021/07/15 06:45:41;;;;;;;1.50;0.70;;;;;;;;;;4972220;28;20023;-84
2021/07/15 06:48:27;;;;;;;3.67;0.70;;;;;;;;;;4971841;28;20031;-83
2021/07/15 06:51:12;;;;;;;4.45;0.80;;;;;;;;;;4972231;28;20113;-84
2021/07/15 06:53:57;;;;;;;3.53;0.70;;;;;;;;;;4970238;28;20034;-83
2021/07/15 06:56:43;;;;;;;2.60;0.73;;;;;;;;;;4971523;28;20445;-83
2021/07/15 06:59:28;;;;;;;2.97;0.93;;;;;;;;;;4973320;28;20377;-84
2021/07/15 07:02:13;;;;;;;2.88;0.75;;;;;;;;;;4972052;28;20019;-85
2021/07/15 07:04:58;;;;;;;2.97;0.57;;;;;;;;;;4971844;28;20035;-85
2021/07/15 07:07:45;;;;;;;1.60;0.68;;;;;;;;;;4971873;28;20564;-84
2021/07/15 07:10:30;;;;;;;2.75;0.70;;;;;;;;;;4971353;28;20023;-84
2021/07/15 07:13:15;;;;;;;2.83;0.73;;;;;;;;;;4965876;28;20034;-84
2021/07/15 07:16:01;;;;;;;2.88;0.60;;;;;;;;;;4965826;28;20073;-84
2021/07/15 07:18:46;;;;;;;1.25;0.70;;;;;;;;;;4971327;28;20037;-84
2021/07/15 07:21:31;;;;;;;1.13;0.60;;;;;;;;;;4969881;28;20031;-84
2021/07/15 07:24:16;;;;;;;1.10;0.80;;;;;;;;;;4971321;28;20034;-83
2021/07/15 07:27:02;;;;;;;1.05;0.73;;;;;;;;;;4971286;28;20019;-83
2021/07/15 07:29:47;;;;;;;3.83;0.63;;;;;;;;;;4971249;28;20070;-83
2021/07/15 07:32:32;;;;;;;0.77;0.70;;;;;;;;;;4971066;28;20394;-84
2021/07/15 07:35:17;;;;;;;2.45;0.65;;;;;;;;;;4970976;28;20525;-84
2021/07/15 07:38:03;;;;;;;0.75;0.50;;;;;;;;;;4971105;28;20030;-84
2021/07/15 07:40:48;;;;;;;3.13;0.70;;;;;;;;;;4970533;28;20014;-84
2021/07/15 07:43:33;;;;;;;0.65;0.50;;;;;;;;;;4971428;28;20046;-84
2021/07/15 07:46:19;;;;;;;2.08;0.65;;;;;;;;;;4974207;28;20023;-83
2021/07/15 07:49:04;;;;;;;0.60;0.60;;;;;;;;;;4972759;28;20027;-84
2021/07/15 07:51:49;;;;;;;0.75;0.50;;;;;;;;;;4971252;28;20089;-83
2021/07/15 07:54:34;;;;;;;1.05;0.70;;;;;;;;;;4967528;28;20054;-83
2021/07/15 07:57:19;;;;;;;1.58;0.60;;;;;;;;;;4970138;28;20058;-83
2021/07/15 08:00:07;;;;;;;1.08;0.50;;;;;;;;;;4969063;28;20477;-83
2021/07/15 08:02:52;;;;;;;1.33;0.65;;;;;;;;;;4970800;28;20457;-83
2021/07/15 08:05:40;;;;;;;0.80;0.60;;;;;;;;;;4970139;28;20138;-83
2021/07/15 08:08:27;;;;;;;3.40;0.50;;;;;;;;;;4957075;28;20031;-83
2021/07/15 08:11:12;;;;;;;0.85;0.50;;;;;;;;;;4955254;28;20113;-84
2021/07/15 08:13:57;;;;;;;3.40;0.75;;;;;;;;;;4905799;29;20032;-84
2021/07/15 08:16:43;;;;;;;0.50;0.47;;;;;;;;;;4956430;28;20022;-83
2021/07/15 08:19:28;;;;;;;1.15;0.52;;;;;;;;;;4955161;28;20381;-84
2021/07/15 08:22:13;;;;;;;1.42;0.60;;;;;;;;;;4957079;28;20023;-83
2021/07/15 08:24:58;;;;;;;2.08;1.30;;;;;;;;;;4956799;28;20023;-83
2021/07/15 08:27:43;;;;;;;1.63;0.60;;;;;;;;;;4956814;28;20087;-83
2021/07/15 08:30:29;;;;;;;1.48;0.63;;;;;;;;;;4957049;28;20035;-83
2021/07/15 08:33:14;;;;;;;0.55;0.55;;;;;;;;;;4956552;28;20390;-83
2021/07/15 08:35:59;;;;;;;0.65;0.60;;;;;;;;;;4956680;28;20045;-83
2021/07/15 08:38:44;;;;;;;3.83;0.50;;;;;;;;;;4956798;28;20038;-82
2021/07/15 08:41:30;;;;;;;0.90;0.50;;;;;;;;;;4954744;28;20094;-82
2021/07/15 08:44:16;;;;;;;2.65;0.60;;;;;;;;;;4956584;28;20117;-84
2021/07/15 08:47:01;;;;;;;2.28;0.60;;;;;;;;;;4956774;28;20040;-84
2021/07/15 08:49:47;;;;;;;1.75;0.57;;;;;;;;;;4956088;28;20025;-83
2021/07/15 08:52:36;;;;;;;1.35;0.80;;;;;;;;;;4956413;28;20425;-83
2021/07/15 08:56:36;;;;;;;;;;;;;;;;;;4956741;28;20490;-85
2021/07/15 08:58:26;;;;;;;0.88;0.65;;;;;;;;;;4955562;28;20014;-86
2021/07/15 09:01:12;;;;;;;0.63;0.60;;;;;;;;;;4954984;28;20030;-85
2021/07/15 09:03:57;;;;;;;3.42;0.80;;;;;;;;;;4954805;28;20031;-85
2021/07/15 09:06:43;;;;;;;5.65;1.00;;;;;;;;;;4963399;28;20512;-86
2021/07/15 09:09:30;;;;;;;1.67;0.70;;;;;;;;;;4970163;28;20237;-86
2021/07/15 09:12:16;;;;;;;1.00;0.68;;;;;;;;;;4963289;28;20110;-86
2021/07/15 09:15:05;;;;;;;3.83;0.70;;;;;;;;;;4952772;28;20056;-86
2021/07/15 09:17:50;;;;;;;;;;;;;;;;;;4969660;28;20029;-86
2021/07/15 09:20:35;;;;;;;0.52;0.52;;;;;;;;;;4967962;28;20356;-86
2021/07/15 09:23:21;;;;;;;1.25;0.60;;;;;;;;;;4969554;28;20426;-85
2021/07/15 09:26:06;;;;;;;3.40;0.70;;;;;;;;;;4965919;28;20034;-86
2021/07/15 09:28:51;;;;;;;2.03;0.60;;;;;;;;;;4967646;28;20022;-85
2021/07/15 09:31:49;;;;;;;1.58;0.60;;;;;;;;;;4969297;28;20478;-86
2021/07/15 09:34:35;;;;;;;3.00;0.63;;;;;;;;;;4969502;28;20054;-86
2021/07/15 09:37:21;;;;;;;0.60;0.50;;;;;;;;;;4969125;28;20031;-86
2021/07/15 09:40:07;;;;;;;2.70;0.60;;;;;;;;;;4967476;28;20493;-85
2021/07/15 09:43:09;;;;;;;1.13;0.60;;;;;;;;;;4969258;28;20492;-85
2021/07/15 09:46:00;;;;;;;1.35;0.50;;;;;;;;;;4965785;28;20421;-86
2021/07/15 09:48:46;;;;;;;1.90;0.70;;;;;;;;;;4969196;28;20030;-86
2021/07/15 09:51:40;;;;;;;2.75;0.70;;;;;;;;;;4967567;28;20758;-85
2021/07/15 09:54:26;;;;;;;2.08;0.50;;;;;;;;;;4969116;28;20019;-85
2021/07/15 09:57:24;;;;;;;2.47;0.60;;;;;;;;;;4969401;28;20027;-85
2021/07/15 10:00:09;;;;;;;2.95;0.57;;;;;;;;;;4969814;28;20130;-85
2021/07/15 10:02:55;;;;;;;2.47;0.60;;;;;;;;;;4967668;28;20031;-85
2021/07/15 10:05:53;;;;;;;2.13;0.80;;;;;;;;;;4968828;28;20050;-86
2021/07/15 10:08:40;;;;;;;2.25;0.70;;;;;;;;;;4955797;28;20069;-85
2021/07/15 10:11:29;;;;;;;1.08;0.70;;;;;;;;;;4959899;28;20169;-85
2021/07/15 10:14:17;;;;;;;0.73;0.70;;;;;;;;;;4921021;29;20051;-87
2021/07/15 10:17:03;;;;;;;1.95;0.70;;;;;;;;;;4921196;29;20078;-86
2021/07/15 10:20:08;;;;;;;3.22;0.80;;;;;;;;;;4934179;29;20020;-85
2021/07/15 10:22:53;;;;;;;2.42;0.80;;;;;;;;;;4920830;29;20031;-85
2021/07/15 10:25:39;;;;;;;1.95;0.88;;;;;;;;;;4921189;29;20051;-87
2021/07/15 10:28:24;;;;;;;1.50;0.70;;;;;;;;;;4921171;29;20090;-86
2021/07/15 10:31:11;;;;;;;2.92;0.95;;;;;;;;;;4921045;29;20034;-86
2021/07/15 10:33:57;;;;;;;2.10;1.45;;;;;;;;;;4921134;29;20041;-86
2021/07/15 10:36:42;;;;;;;1.67;0.75;;;;;;;;;;4920650;29;20391;-85
2021/07/15 10:39:29;;;;;;;1.10;0.85;;;;;;;;;;4921287;29;20042;-85
2021/07/15 10:42:14;;;;;;;3.55;0.90;;;;;;;;;;4920962;29;20023;-86
2021/07/15 10:45:00;;;;;;;2.75;1.15;;;;;;;;;;4933638;29;20102;-85
2021/07/15 10:47:45;;;;;;;1.83;0.75;;;;;;;;;;4933704;29;20038;-85
2021/07/15 10:50:30;;;;;;;0.60;0.60;;;;;;;;;;4918879;29;20122;-85
2021/07/15 10:53:15;;;;;;;2.08;0.90;;;;;;;;;;4920254;29;20432;-85
2021/07/15 10:56:02;;;;;;;2.45;0.98;;;;;;;;;;4920348;29;20027;-85
2021/07/15 10:58:51;;;;;;;0.95;0.70;;;;;;;;;;4920102;29;20094;-85
2021/07/15 11:01:40;;;;;;;3.75;0.90;;;;;;;;;;4931903;29;20035;-85
2021/07/15 11:04:34;;;;;;;1.20;0.90;;;;;;;;;;4929950;29;20039;-84
2021/07/15 11:07:34;;;;;;;2.20;0.80;;;;;;;;;;4950693;29;20043;-85
2021/07/15 11:10:21;;;;;;;1.25;0.80;;;;;;;;;;4952569;29;20024;-85
2021/07/15 11:13:08;;;;;;;2.33;0.88;;;;;;;;;;4965606;28;20117;-85
2021/07/15 11:15:57;;;;;;;0.90;0.63;;;;;;;;;;4965420;28;20379;-86
2021/07/15 11:18:52;;;;;;;3.47;0.60;;;;;;;;;;4950769;29;20137;-86
2021/07/15 11:21:37;;;;;;;2.05;0.93;;;;;;;;;;4938911;29;20486;-85
2021/07/15 11:24:29;;;;;;;1.90;0.70;;;;;;;;;;4950969;29;20022;-84
2021/07/15 11:27:28;;;;;;;2.95;0.80;;;;;;;;;;4954672;29;20517;-86
2021/07/15 11:30:26;;;;;;;1.80;1.08;;;;;;;;;;4950684;29;20133;-85
2021/07/15 11:33:18;;;;;;;1.20;0.60;;;;;;;;;;4951867;29;20121;-85
2021/07/15 11:36:08;;;;;;;0.63;0.63;;;;;;;;;;4952386;29;20425;-85
2021/07/15 11:38:58;;;;;;;5.70;0.98;;;;;;;;;;4952214;29;20130;-86
2021/07/15 11:41:45;;;;;;;1.20;0.50;;;;;;;;;;4950101;29;20070;-86
2021/07/15 11:44:50;;;;;;;3.10;0.77;;;;;;;;;;4951705;29;20034;-86
2021/07/15 11:47:42;;;;;;;5.05;0.88;;;;;;;;;;4951948;29;20027;-86
2021/07/15 11:50:30;;;;;;;2.05;0.70;;;;;;;;;;4951334;29;20019;-86
2021/07/15 11:53:19;;;;;;;0.90;0.60;;;;;;;;;;4939027;29;20504;-86
2021/07/15 11:56:20;;;;;;;1.45;0.98;;;;;;;;;;4951975;29;20024;-86
2021/07/15 11:59:05;;;;;;;1.40;0.75;;;;;;;;;;4951386;29;20401;-86
2021/07/15 12:02:02;;;;;;;0.52;0.52;;;;;;;;;;4950158;29;20057;-87
2021/07/15 12:05:06;;;;;;;0.60;0.60;;;;;;;;;;4951336;29;20019;-87
2021/07/15 12:08:14;;;;;;;3.03;0.85;;;;;;;;;;4951654;29;20047;-86
2021/07/15 12:10:59;;;;;;;1.27;0.70;;;;;;;;;;4949907;29;20031;-86
2021/07/15 12:13:48;;;;;;;0.98;0.88;;;;;;;;;;4969610;28;20031;-86
2021/07/15 12:16:35;;;;;;;0.98;0.70;;;;;;;;;;4962954;28;20414;-86
2021/07/15 12:19:21;;;;;;;0.73;0.70;;;;;;;;;;4951228;29;20162;-86
2021/07/15 12:22:06;;;;;;;2.03;0.93;;;;;;;;;;4951185;29;20030;-86
2021/07/15 12:25:30;;;;;;;0.82;0.60;;;;;;;;;;4952044;29;20023;-86
2021/07/15 12:28:17;;;;;;;0.93;0.70;;;;;;;;;;4879807;29;20596;-86
2021/07/15 12:31:06;;;;;;;0.80;0.60;;;;;;;;;;4878213;29;20511;-86
2021/07/15 12:33:53;;;;;;;0.95;0.70;;;;;;;;;;4943275;29;20039;-86
2021/07/15 12:36:40;;;;;;;0.82;0.80;;;;;;;;;;4951252;29;20138;-86
2021/07/15 12:39:25;;;;;;;0.60;0.60;;;;;;;;;;4950391;29;20027;-85
2021/07/15 12:42:12;;;;;;;3.08;0.85;;;;;;;;;;4950729;29;20466;-85
2021/07/15 12:44:57;;;;;;;0.77;0.77;;;;;;;;;;4951147;29;20035;-86
2021/07/15 12:47:55;;;;;;;1.15;0.90;;;;;;;;;;4950720;29;20035;-86
2021/07/15 12:50:41;;;;;;;0.80;0.80;;;;;;;;;;4950244;29;20478;-86
2021/07/15 12:53:31;;;;;;;1.10;0.70;;;;;;;;;;4950928;29;20027;-85
2021/07/15 12:56:24;;;;;;;2.42;0.90;;;;;;;;;;4950707;29;20540;-86
2021/07/15 12:59:10;;;;;;;1.67;0.80;;;;;;;;;;4950864;29;20042;-85
2021/07/15 13:01:56;;;;;;;0.70;0.70;;;;;;;;;;4950436;29;20035;-86
2021/07/15 13:04:41;;;;;;;1.10;0.65;;;;;;;;;;4950697;29;20126;-86
2021/07/15 13:07:26;;;;;;;1.90;1.02;;;;;;;;;;4950982;29;20138;-86
2021/07/15 13:16:19;;;;;;;1.02;1.00;;;;;;;;;;4969594;28;20121;-85
2021/07/15 13:19:09;;;;;;;0.80;0.80;;;;;;;;;;4970093;28;20023;-86
2021/07/15 13:21:54;;;;;;;1.10;1.00;;;;;;;;;;4969493;28;20089;-86
2021/07/15 13:24:41;;;;;;;1.40;0.90;;;;;;;;;;4969974;28;20054;-85
2021/07/15 13:27:26;;;;;;;1.00;0.90;;;;;;;;;;4969263;28;20026;-85
2021/07/15 13:30:12;;;;;;;2.45;1.20;;;;;;;;;;4969213;28;20062;-85
2021/07/15 13:33:07;;;;;;;1.00;0.85;;;;;;;;;;4969750;28;20066;-86
2021/07/15 13:35:54;;;;;;;1.90;0.95;;;;;;;;;;4969525;28;20015;-84
2021/07/15 13:38:40;;;;;;;1.30;1.05;;;;;;;;;;4955450;28;20042;-85
2021/07/15 13:41:27;;;;;;;2.72;0.82;;;;;;;;;;4955896;28;20026;-85
2021/07/15 13:44:13;;;;;;;0.73;0.73;;;;;;;;;;4958556;28;20533;-84
2021/07/15 13:47:01;;;;;;;1.10;0.80;;;;;;;;;;4973006;28;20425;-83
2021/07/15 13:49:51;;;;;;;2.63;0.80;;;;;;;;;;4986782;28;20057;-84
2021/07/15 13:52:37;;;;;;;0.60;0.60;;;;;;;;;;4973315;28;20026;-87
2021/07/15 13:55:24;;;;;;;0.70;0.70;;;;;;;;;;4973484;28;20030;-88
2021/07/15 13:58:16;;;;;;;1.30;0.95;;;;;;;;;;4973128;28;20034;-86
2021/07/15 14:01:02;;;;;;;1.00;0.90;;;;;;;;;;4973211;28;20027;-86
2021/07/15 14:03:48;;;;;;;2.35;1.20;;;;;;;;;;4973253;28;20027;-87
2021/07/15 14:06:35;;;;;;;0.68;0.68;;;;;;;;;;4972495;28;20082;-87
2021/07/15 14:09:20;;;;;;;0.57;0.57;;;;;;;;;;4976473;28;20026;-86
2021/07/15 14:12:09;;;;;;;0.60;0.60;;;;;;;;;;4972318;28;20029;-85
2021/07/15 14:14:54;;;;;;;1.97;0.80;;;;;;;;;;4972987;28;20087;-85
2021/07/15 14:17:39;;;;;;;0.90;0.63;;;;;;;;;;4972859;28;20061;-85
2021/07/15 14:20:25;;;;;;;1.17;0.82;;;;;;;;;;4972700;28;20038;-86
2021/07/15 14:23:12;;;;;;;0.80;0.80;;;;;;;;;;4972890;28;20489;-85
2021/07/15 14:25:59;;;;;;;4.93;1.08;;;;;;;;;;4972535;28;20023;-84
2021/07/15 14:28:44;;;;;;;1.10;1.00;;;;;;;;;;4972704;28;20022;-85
2021/07/15 14:31:29;;;;;;;2.15;0.90;;;;;;;;;;4971337;28;20046;-85
2021/07/15 14:34:14;;;;;;;0.88;0.85;;;;;;;;;;4958653;28;20122;-86
2021/07/15 14:36:59;;;;;;;1.20;0.88;;;;;;;;;;4969052;28;20555;-85
2021/07/15 14:39:45;;;;;;;1.42;1.33;;;;;;;;;;4972701;28;20031;-85
2021/07/15 14:42:30;;;;;;;1.65;1.40;;;;;;;;;;4972263;28;20082;-85
2021/07/15 14:45:16;;;;;;;2.13;1.40;;;;;;;;;;4972549;28;20023;-85
2021/07/15 14:48:01;;;;;;;1.48;1.38;;;;;;;;;;4972479;28;20027;-85
2021/07/15 14:50:46;;;;;;;3.10;1.30;;;;;;;;;;4972114;28;20435;-85
2021/07/15 14:53:31;;;;;;;4.18;1.50;;;;;;;;;;4972572;28;20347;-85
2021/07/15 14:56:16;;;;;;;2.00;1.80;;;;;;;;;;4971398;28;20022;-84
2021/07/15 14:59:02;;;;;;;1.42;1.27;;;;;;;;;;4958854;28;20031;-86
2021/07/15 15:01:47;;;;;;;0.90;0.90;;;;;;;;;;4956993;28;20037;-85
2021/07/15 15:04:32;;;;;;;3.30;1.60;;;;;;;;;;4971654;28;20035;-86
2021/07/15 15:07:17;;;;;;;4.55;1.67;;;;;;;;;;4968132;28;20074;-85
2021/07/15 15:10:04;;;;;;;1.45;1.35;;;;;;;;;;4972009;28;20124;-84
2021/07/15 15:12:49;;;;;;;2.05;1.13;;;;;;;;;;4963919;28;20025;-83
2021/07/15 15:15:35;;;;;;;1.67;1.10;;;;;;;;;;4962274;28;20106;-83
2021/07/15 15:18:20;;;;;;;3.42;1.40;;;;;;;;;;4971366;28;20054;-85
2021/07/15 15:21:05;;;;;;;1.30;1.20;;;;;;;;;;4957766;28;20035;-84
2021/07/15 15:23:50;;;;;;;2.92;1.20;;;;;;;;;;4971970;28;20433;-84
2021/07/15 15:26:36;;;;;;;1.38;1.23;;;;;;;;;;4971725;28;20188;-84
2021/07/15 15:29:22;;;;;;;2.05;1.20;;;;;;;;;;4971397;28;20054;-86
2021/07/15 15:32:07;;;;;;;2.05;1.23;;;;;;;;;;4971774;28;20386;-86
2021/07/15 15:34:52;;;;;;;3.97;1.30;;;;;;;;;;4970836;28;20453;-85
2021/07/15 15:37:37;;;;;;;1.88;1.67;;;;;;;;;;4971456;28;20031;-85
2021/07/15 15:40:23;;;;;;;1.70;1.45;;;;;;;;;;4971644;28;20114;-85
2021/07/15 15:43:08;;;;;;;1.40;1.30;;;;;;;;;;4970916;28;20015;-85
2021/07/15 15:45:53;;;;;;;3.38;1.70;;;;;;;;;;4971184;28;20030;-86
2021/07/15 15:48:38;;;;;;;1.75;1.63;;;;;;;;;;4969163;28;20023;-89
2021/07/15 15:51:23;;;;;;;6.15;2.08;;;;;;;;;;4972136;28;20081;-90
2021/07/15 15:54:09;;;;;;;2.17;1.50;;;;;;;;;;4972056;28;20111;-89
2021/07/15 15:56:54;;;;;;;2.97;2.05;;;;;;;;;;4972171;28;20041;-89
2021/07/15 15:59:39;;;;;;;3.53;1.42;;;;;;;;;;4971934;28;20117;-88
2021/07/15 16:02:24;;;;;;;2.75;1.50;;;;;;;;;;4970656;28;20105;-88
2021/07/15 16:05:13;;;;;;;2.08;1.33;;;;;;;;;;4971281;28;20038;-88
2021/07/15 16:08:00;;;;;;;1.45;1.35;;;;;;;;;;4957157;28;20621;-88
2021/07/15 16:10:48;;;;;;;1.70;1.60;;;;;;;;;;4956601;28;20019;-87
2021/07/15 16:13:33;;;;;;;2.22;1.58;;;;;;;;;;4935382;29;20060;-88
2021/07/15 16:16:19;;;;;;;3.95;1.70;;;;;;;;;;4951153;28;20102;-89
2021/07/15 16:19:04;;;;;;;3.90;1.92;;;;;;;;;;4958048;28;20041;-88
2021/07/15 16:21:50;;;;;;;3.42;1.70;;;;;;;;;;4956647;28;20027;-88
2021/07/15 16:24:36;;;;;;;2.10;1.70;;;;;;;;;;4958306;28;20146;-87
2021/07/15 16:27:21;;;;;;;1.90;1.70;;;;;;;;;;4957733;28;20034;-88
2021/07/15 16:30:08;;;;;;;1.63;1.52;;;;;;;;;;4942686;28;20023;-88
2021/07/15 16:32:58;;;;;;;1.50;1.40;;;;;;;;;;4958158;28;20027;-87
2021/07/15 16:35:43;;;;;;;2.53;1.60;;;;;;;;;;4956434;28;20061;-87
2021/07/15 16:38:30;;;;;;;2.95;1.40;;;;;;;;;;4954737;28;20418;-87
2021/07/15 16:41:15;;;;;;;1.98;1.40;;;;;;;;;;4957852;28;20022;-88
2021/07/15 16:44:00;;;;;;;3.05;1.45;;;;;;;;;;4958057;28;20031;-87
2021/07/15 16:46:45;;;;;;;8.65;1.42;;;;;;;;;;4957184;28;20023;-87
2021/07/15 16:49:31;;;;;;;1.42;1.33;;;;;;;;;;4957659;28;20110;-87